Time;durP1;ratioP1;P1;durP2;ratioP2;P2;SDS_P1;SDS_P2;PMS_P1;PMS_P2;Temp;Humidity;BMP_temperature;BMP_pressure;BME280_temperature;BME280_humidity;BME280_pressure;Samples;Min_cycle;Max_cycle;Signal;HPM_P1;HPM_P2
2022/06/03 00:01:08;;;;;;;13.02;5.40;;;22.80;52.90;;;;;;5059990;28;20059;-62
2022/06/03 00:03:39;;;;;;;12.18;5.68;;;22.80;52.90;;;;;;5055426;28;20028;-62
2022/06/03 00:06:18;;;;;;;12.35;5.07;;;22.80;53.00;;;;;;5064477;28;20040;-62
2022/06/03 00:09:02;;;;;;;12.82;5.07;;;22.80;53.00;;;;;;5067618;28;20052;-62
2022/06/03 00:11:37;;;;;;;13.70;5.20;;;22.80;53.00;;;;;;5061017;28;20067;-62
2022/06/03 00:14:05;;;;;;;;;;;22.80;53.00;;;;;;5059558;28;20037;-62
2022/06/03 00:16:48;;;;;;;11.40;4.95;;;22.80;53.00;;;;;;5054677;28;19912;-62
2022/06/03 00:19:48;;;;;;;13.20;5.68;;;22.80;53.00;;;;;;5056708;28;20064;-62
2022/06/03 00:22:44;;;;;;;14.10;5.55;;;22.80;53.10;;;;;;5057501;28;20059;-62
2022/06/03 00:25:29;;;;;;;;;;;22.80;53.10;;;;;;5058129;28;20159;-62
2022/06/03 00:28:03;;;;;;;13.90;5.30;;;22.70;53.10;;;;;;5065507;28;20054;-62
2022/06/03 00:30:35;;;;;;;14.70;5.80;;;22.80;53.10;;;;;;5056233;28;20021;-62
2022/06/03 00:33:19;;;;;;;11.60;5.43;;;22.70;53.20;;;;;;5073092;28;20094;-62
2022/06/03 00:36:10;;;;;;;14.33;5.47;;;22.70;53.20;;;;;;5060082;28;20029;-62
2022/06/03 00:38:54;;;;;;;12.35;5.20;;;22.70;53.20;;;;;;5062361;28;20056;-62
2022/06/03 00:42:05;;;;;;;12.40;5.70;;;22.70;54.30;;;;;;5061613;28;20033;-62
2022/06/03 00:44:46;;;;;;;12.55;5.20;;;22.70;53.20;;;;;;5054640;28;20290;-62
2022/06/03 00:47:36;;;;;;;12.85;5.13;;;22.70;53.30;;;;;;5063914;28;20086;-62
2022/06/03 00:50:29;;;;;;;14.00;5.65;;;22.70;53.30;;;;;;5054579;28;20021;-62
2022/06/03 00:53:32;;;;;;;13.15;5.68;;;22.70;53.20;;;;;;5058275;28;20047;-62
2022/06/03 00:56:38;;;;;;;14.57;5.50;;;22.70;53.30;;;;;;5064132;28;20401;-62
2022/06/03 00:59:26;;;;;;;13.77;5.68;;;22.70;53.40;;;;;;5054307;28;20033;-62
2022/06/03 01:02:14;;;;;;;13.57;5.30;;;22.60;53.40;;;;;;5061966;28;20020;-62
2022/06/03 01:04:55;;;;;;;12.07;4.88;;;22.60;53.20;;;;;;5055952;28;20111;-62
2022/06/03 01:07:58;;;;;;;13.20;5.22;;;22.60;53.40;;;;;;5052084;28;20028;-62
2022/06/03 01:10:50;;;;;;;10.93;4.90;;;22.60;53.30;;;;;;5056341;28;20091;-62
2022/06/03 01:13:46;;;;;;;10.70;4.90;;;22.60;53.30;;;;;;5060965;28;20302;-62
2022/06/03 01:16:33;;;;;;;13.77;5.00;;;22.60;53.50;;;;;;5053378;28;20186;-62
2022/06/03 01:19:16;;;;;;;15.00;4.90;;;22.60;53.40;;;;;;5058834;28;20029;-62
2022/06/03 01:22:03;;;;;;;10.70;5.22;;;22.60;53.50;;;;;;5075092;28;20124;-62
2022/06/03 01:24:29;;;;;;;12.02;4.88;;;22.60;53.50;;;;;;5061343;28;20091;-62
2022/06/03 01:27:11;;;;;;;11.32;4.85;;;22.60;53.50;;;;;;5061551;28;20397;-62
2022/06/03 01:29:49;;;;;;;11.98;5.40;;;22.50;53.40;;;;;;5065116;28;20025;-62
2022/06/03 01:32:38;;;;;;;12.35;5.50;;;22.50;53.40;;;;;;5058354;28;20044;-62
2022/06/03 01:35:31;;;;;;;10.30;4.97;;;22.50;53.40;;;;;;5066020;28;20028;-62
2022/06/03 01:38:02;;;;;;;13.40;5.35;;;22.50;53.40;;;;;;5067887;28;20028;-62
2022/06/03 01:40:47;;;;;;;11.27;4.60;;;22.50;53.40;;;;;;5056984;28;20036;-62
2022/06/03 01:43:19;;;;;;;12.77;5.05;;;22.50;53.40;;;;;;5056930;28;20107;-62
2022/06/03 01:45:56;;;;;;;11.60;4.82;;;22.50;53.40;;;;;;5057736;28;20455;-62
2022/06/03 01:48:40;;;;;;;11.55;5.15;;;22.50;53.40;;;;;;5059235;28;20331;-62
2022/06/03 01:51:30;;;;;;;12.77;5.13;;;22.50;53.40;;;;;;5062902;28;20512;-62
2022/06/03 01:54:23;;;;;;;11.43;5.10;;;22.40;53.40;;;;;;5059721;28;20114;-62
2022/06/03 01:57:26;;;;;;;11.57;4.97;;;22.40;53.40;;;;;;5073084;28;20449;-62
2022/06/03 02:00:10;;;;;;;11.60;5.13;;;22.40;53.30;;;;;;5060902;28;20016;-61
2022/06/03 02:02:39;;;;;;;12.97;5.20;;;22.40;53.30;;;;;;5065874;28;20505;-62
2022/06/03 02:05:25;;;;;;;13.50;5.28;;;22.40;53.40;;;;;;5066057;28;20032;-61
2022/06/03 02:08:18;;;;;;;13.45;4.90;;;22.40;53.40;;;;;;5060048;28;20404;-62
2022/06/03 02:11:14;;;;;;;12.23;5.18;;;22.40;53.30;;;;;;5057066;28;20032;-62
2022/06/03 02:14:15;;;;;;;11.23;4.50;;;22.40;53.60;;;;;;5055222;28;20051;-62
2022/06/03 02:17:04;;;;;;;11.65;4.75;;;22.40;53.50;;;;;;5023479;28;20052;-62
2022/06/03 02:20:17;;;;;;;11.18;4.60;;;22.40;53.80;;;;;;5027257;28;20037;-62
2022/06/03 02:22:56;;;;;;;10.45;4.63;;;22.40;53.50;;;;;;4965401;28;23410;-62
2022/06/03 02:25:28;;;;;;;9.85;4.60;;;22.30;53.60;;;;;;4962451;28;20573;-62
2022/06/03 02:28:07;;;;;;;11.20;5.03;;;22.30;53.60;;;;;;4967786;28;20142;-61
2022/06/03 02:30:51;;;;;;;11.55;4.60;;;22.30;53.60;;;;;;4950117;28;20452;-62
2022/06/03 02:33:35;;;;;;;12.48;4.75;;;22.30;53.60;;;;;;4965417;28;20085;-62
2022/06/03 02:36:13;;;;;;;11.57;4.93;;;22.30;53.60;;;;;;4966411;28;20084;-62
2022/06/03 02:39:10;;;;;;;10.73;4.65;;;22.30;53.60;;;;;;4965961;28;20035;-62
2022/06/03 02:41:51;;;;;;;9.90;4.75;;;22.30;53.50;;;;;;4953656;28;20419;-61
2022/06/03 02:44:44;;;;;;;11.10;4.32;;;22.30;53.50;;;;;;4967898;28;20039;-62
2022/06/03 02:47:47;;;;;;;10.10;4.60;;;22.30;53.60;;;;;;4964526;28;20420;-61
2022/06/03 02:50:21;;;;;;;11.10;5.10;;;22.30;53.60;;;;;;4947870;28;20090;-61
2022/06/03 02:52:56;;;;;;;10.93;4.20;;;22.30;53.70;;;;;;4987474;28;20040;-62
2022/06/03 02:55:59;;;;;;;9.82;4.20;;;22.30;53.70;;;;;;5051600;28;20036;-62
2022/06/03 02:58:43;;;;;;;9.88;4.22;;;22.20;53.60;;;;;;5053099;28;20055;-62
2022/06/03 03:01:30;;;;;;;10.20;4.72;;;22.20;53.60;;;;;;5055663;28;20040;-62
2022/06/03 03:04:17;;;;;;;10.15;4.28;;;22.20;53.60;;;;;;5058027;28;20024;-62
2022/06/03 03:06:51;;;;;;;10.75;4.85;;;22.20;53.60;;;;;;5058104;28;20041;-62
2022/06/03 03:09:23;;;;;;;;;;;22.20;53.70;;;;;;5062641;28;20504;-61
2022/06/03 03:12:27;;;;;;;9.18;3.97;;;22.20;53.70;;;;;;5064563;28;20452;-62
2022/06/03 03:15:33;;;;;;;9.05;4.00;;;22.20;53.60;;;;;;5047827;28;20037;-61
2022/06/03 03:18:17;;;;;;;11.68;4.90;;;22.20;53.70;;;;;;5009034;28;20035;-62
2022/06/03 03:21:29;;;;;;;9.77;4.40;;;22.20;53.70;;;;;;5006204;28;20425;-62
2022/06/03 03:24:04;;;;;;;10.48;4.55;;;22.20;53.60;;;;;;5008939;28;20046;-61
2022/06/03 03:26:52;;;;;;;10.18;4.38;;;22.20;53.60;;;;;;5007312;28;20042;-62
2022/06/03 03:29:23;;;;;;;11.93;4.10;;;22.10;53.70;;;;;;4994913;28;20084;-62
2022/06/03 03:32:28;;;;;;;9.23;4.10;;;22.10;53.60;;;;;;5007615;28;20088;-62
2022/06/03 03:35:13;;;;;;;10.27;4.30;;;22.10;53.60;;;;;;5002607;28;20040;-62
2022/06/03 03:37:42;;;;;;;9.25;4.20;;;22.10;53.70;;;;;;5001662;28;20054;-62
2022/06/03 03:40:46;;;;;;;11.07;4.45;;;22.10;53.80;;;;;;5007185;28;20121;-61
2022/06/03 03:43:31;;;;;;;9.73;4.30;;;22.10;53.70;;;;;;5008430;28;20133;-62
2022/06/03 03:46:21;;;;;;;9.85;4.13;;;22.10;53.70;;;;;;5010294;28;20081;-61
2022/06/03 03:49:10;;;;;;;9.95;4.15;;;22.10;53.70;;;;;;5014221;28;20081;-62
2022/06/03 03:51:59;;;;;;;9.23;4.20;;;22.10;53.70;;;;;;5009740;28;20056;-61
2022/06/03 03:55:02;;;;;;;8.55;3.72;;;22.10;53.60;;;;;;5015838;28;20095;-62
2022/06/03 03:58:05;;;;;;;8.65;4.07;;;22.10;53.60;;;;;;5021403;28;20060;-62
2022/06/03 04:00:42;;;;;;;11.68;4.18;;;22.00;53.60;;;;;;5020820;28;20038;-62
2022/06/03 04:03:17;;;;;;;8.68;3.90;;;22.00;53.60;;;;;;5017587;28;20030;-62
2022/06/03 04:06:09;;;;;;;10.40;4.28;;;22.00;53.60;;;;;;5003261;28;20021;-61
2022/06/03 04:08:38;;;;;;;10.57;4.50;;;22.00;53.60;;;;;;5013472;28;20050;-62
2022/06/03 04:11:47;;;;;;;9.77;4.07;;;22.00;53.60;;;;;;5018379;28;20053;-62
2022/06/03 04:14:27;;;;;;;8.90;3.95;;;22.00;53.70;;;;;;4983893;28;20127;-61
2022/06/03 04:17:04;;;;;;;10.13;4.25;;;22.00;53.70;;;;;;4982013;28;20034;-62
2022/06/03 04:19:38;;;;;;;9.63;4.32;;;22.00;53.70;;;;;;4976411;28;20109;-61
2022/06/03 04:22:15;;;;;;;7.60;3.80;;;22.00;53.70;;;;;;5021364;28;20514;-62
2022/06/03 04:25:05;;;;;;;9.13;3.88;;;22.00;53.60;;;;;;5026201;28;20494;-62
2022/06/03 04:27:45;;;;;;;9.57;3.83;;;22.00;53.60;;;;;;5023904;28;20033;-62
2022/06/03 04:30:20;;;;;;;9.77;4.43;;;21.90;53.60;;;;;;5018994;28;20037;-62
2022/06/03 04:33:09;;;;;;;7.97;3.67;;;22.00;53.70;;;;;;5022474;28;20053;-62
2022/06/03 04:35:50;;;;;;;9.13;4.07;;;21.90;53.50;;;;;;5025768;28;20026;-61
2022/06/03 04:38:27;;;;;;;9.52;4.30;;;21.90;53.60;;;;;;5041570;28;20124;-61
2022/06/03 04:41:13;;;;;;;7.78;3.88;;;21.90;53.60;;;;;;5021554;28;20032;-61
2022/06/03 04:43:54;;;;;;;9.20;4.07;;;21.90;53.60;;;;;;5021797;28;20265;-61
2022/06/03 04:46:34;;;;;;;8.70;4.00;;;21.90;53.60;;;;;;5020928;28;20029;-63
2022/06/03 04:49:10;;;;;;;9.75;3.60;;;21.90;53.70;;;;;;5022379;28;20055;-62
2022/06/03 04:52:27;;;;;;;8.25;3.40;;;21.90;53.70;;;;;;5043549;28;20048;-62
2022/06/03 04:55:12;;;;;;;8.80;4.00;;;21.90;53.70;;;;;;5059068;28;20037;-62
2022/06/03 04:58:01;;;;;;;10.20;3.42;;;21.90;53.70;;;;;;5056293;28;20045;-62
2022/06/03 05:01:04;;;;;;;9.60;4.00;;;21.90;53.70;;;;;;5043743;28;20025;-63
2022/06/03 05:03:42;;;;;;;8.25;3.80;;;21.90;53.70;;;;;;5058293;28;20024;-61
2022/06/03 05:06:29;;;;;;;8.85;3.90;;;21.90;53.80;;;;;;5058414;28;20025;-62
2022/06/03 05:09:31;;;;;;;8.38;4.18;;;21.80;53.90;;;;;;5059434;28;20881;-62
2022/06/03 05:12:31;;;;;;;8.52;3.92;;;21.90;53.90;;;;;;5056323;28;20054;-63
2022/06/03 05:15:33;;;;;;;8.55;3.40;;;21.90;53.80;;;;;;5056016;28;20050;-62
2022/06/03 05:18:03;;;;;;;10.23;3.55;;;21.90;53.90;;;;;;5058274;28;20532;-63
2022/06/03 05:20:35;;;;;;;13.80;4.88;;;21.90;54.10;;;;;;5051090;28;20055;-63
2022/06/03 05:23:03;;;;;;;15.30;5.75;;;21.90;54.40;;;;;;5048702;28;20044;-63
2022/06/03 05:25:41;;;;;;;20.88;6.88;;;21.90;55.90;;;;;;5058242;28;20510;-61
2022/06/03 05:28:31;;;;;;;19.10;6.53;;;21.80;55.40;;;;;;5054392;28;20036;-62
2022/06/03 05:30:59;;;;;;;15.10;5.80;;;21.80;55.90;;;;;;5060578;28;20039;-61
2022/06/03 05:33:44;;;;;;;22.00;5.35;;;21.90;55.70;;;;;;5061836;28;20115;-61
2022/06/03 05:36:32;;;;;;;15.63;5.25;;;21.90;55.50;;;;;;5054988;28;20056;-61
2022/06/03 05:39:29;;;;;;;14.32;4.93;;;21.90;56.50;;;;;;5075678;28;20025;-61
2022/06/03 05:42:29;;;;;;;16.92;5.68;;;21.90;56.40;;;;;;5061323;28;20543;-61
2022/06/03 05:45:20;;;;;;;14.65;5.20;;;22.00;56.30;;;;;;5048688;28;20063;-61
2022/06/03 05:48:10;;;;;;;16.80;5.30;;;22.00;56.20;;;;;;5062265;28;20048;-61
2022/06/03 05:50:44;;;;;;;14.23;5.18;;;22.00;56.30;;;;;;5069967;28;20056;-61
2022/06/03 05:53:28;;;;;;;12.38;4.53;;;22.00;56.20;;;;;;5061443;28;20048;-62
2022/06/03 05:56:13;;;;;;;17.75;4.90;;;22.00;56.00;;;;;;5051090;28;20029;-62
2022/06/03 05:58:41;;;;;;;13.40;5.00;;;22.00;55.90;;;;;;5056229;28;20078;-61
2022/06/03 06:01:27;;;;;;;11.80;4.88;;;22.00;55.90;;;;;;5054707;28;20155;-62
2022/06/03 06:04:11;;;;;;;16.83;5.07;;;22.00;55.90;;;;;;5056888;28;20631;-62
2022/06/03 06:06:53;;;;;;;13.55;4.75;;;22.00;55.80;;;;;;5055637;28;20056;-61
2022/06/03 06:09:44;;;;;;;13.00;4.68;;;22.00;55.70;;;;;;5070671;28;20036;-62
2022/06/03 06:12:17;;;;;;;13.70;5.20;;;22.00;55.70;;;;;;5063083;28;20413;-61
2022/06/03 06:14:49;;;;;;;14.80;4.88;;;22.10;55.70;;;;;;5079534;28;20111;-62
2022/06/03 06:17:40;;;;;;;13.80;4.93;;;22.00;55.60;;;;;;5068873;28;20043;-61
2022/06/03 06:20:18;;;;;;;14.13;4.53;;;22.10;55.60;;;;;;5061362;28;20017;-62
2022/06/03 06:22:46;;;;;;;15.02;5.05;;;22.10;55.60;;;;;;5071360;28;20021;-61
2022/06/03 06:25:17;;;;;;;16.10;4.78;;;22.00;55.50;;;;;;5065287;28;20064;-61
2022/06/03 06:28:02;;;;;;;11.35;5.22;;;22.10;55.50;;;;;;5078039;28;20028;-61
2022/06/03 06:31:05;;;;;;;12.50;4.35;;;22.10;55.70;;;;;;5076304;28;20025;-61
2022/06/03 06:33:57;;;;;;;12.98;4.47;;;22.10;55.70;;;;;;5060845;28;20044;-61
2022/06/03 06:36:47;;;;;;;11.48;4.80;;;22.00;55.50;;;;;;5065271;28;20036;-61
2022/06/03 06:39:29;;;;;;;14.48;4.93;;;22.10;55.50;;;;;;5053462;28;20064;-61
2022/06/03 06:42:43;;;;;;;9.27;4.18;;;22.10;55.50;;;;;;5054216;28;20528;-61
2022/06/03 06:45:27;;;;;;;10.60;4.25;;;22.00;55.40;;;;;;5026824;28;20075;-62
2022/06/03 06:47:58;;;;;;;14.30;5.30;;;22.10;55.50;;;;;;5010565;28;20128;-61
2022/06/03 06:50:31;;;;;;;11.43;4.53;;;22.10;55.60;;;;;;5026356;28;20029;-61
2022/06/03 06:53:02;;;;;;;13.27;4.78;;;22.10;55.60;;;;;;5009059;28;20495;-62
2022/06/03 06:56:01;;;;;;;13.13;4.43;;;22.10;56.60;;;;;;5027502;28;20243;-61
2022/06/03 06:58:42;;;;;;;12.90;4.70;;;22.10;55.50;;;;;;5021589;28;20040;-62
2022/06/03 07:01:34;;;;;;;10.68;4.57;;;22.10;55.50;;;;;;5004077;28;20707;-62
2022/06/03 07:04:12;;;;;;;13.93;4.80;;;22.10;55.50;;;;;;5006982;28;20510;-61
2022/06/03 07:06:42;;;;;;;10.85;4.25;;;22.10;55.40;;;;;;5008846;28;20024;-61
2022/06/03 07:09:11;;;;;;;10.77;4.55;;;22.10;55.50;;;;;;5007143;28;20069;-62
2022/06/03 07:11:43;;;;;;;11.55;4.38;;;22.10;55.50;;;;;;5026214;28;20120;-61
2022/06/03 07:14:18;;;;;;;10.40;4.32;;;22.10;55.40;;;;;;5011412;28;20041;-61
2022/06/03 07:20:08;;;;;;;11.10;4.40;;;22.10;55.30;;;;;;5058194;28;20528;-62
2022/06/03 07:23:06;;;;;;;12.20;4.75;;;22.20;55.30;;;;;;5071063;28;20024;-61
2022/06/03 07:25:56;;;;;;;11.48;4.30;;;22.10;55.30;;;;;;5052080;28;20039;-61
2022/06/03 07:28:42;;;;;;;9.65;4.72;;;22.10;55.40;;;;;;5052787;28;20029;-61
2022/06/03 07:31:20;;;;;;;10.40;4.10;;;22.10;55.40;;;;;;5068311;28;20040;-62
2022/06/03 07:33:48;;;;;;;10.48;4.40;;;22.10;55.50;;;;;;5078157;28;20077;-61
2022/06/03 07:36:40;;;;;;;10.65;4.35;;;22.10;55.40;;;;;;5087116;28;20024;-61
2022/06/03 07:39:29;;;;;;;11.73;4.80;;;22.10;55.30;;;;;;5044168;28;20498;-61
2022/06/03 07:42:07;;;;;;;9.52;4.13;;;22.10;55.20;;;;;;5035455;28;20030;-61
2022/06/03 07:44:46;;;;;;;10.13;4.00;;;22.20;55.20;;;;;;5037303;28;20034;-61
2022/06/03 07:47:13;;;;;;;8.43;4.10;;;22.20;55.20;;;;;;5042089;28;20102;-61
2022/06/03 07:49:39;;;;;;;10.45;4.38;;;22.20;55.20;;;;;;5013377;28;20521;-62
2022/06/03 07:52:14;;;;;;;11.00;4.40;;;22.10;55.20;;;;;;5022232;28;20037;-61
2022/06/03 07:54:49;;;;;;;9.93;4.40;;;22.10;55.20;;;;;;5013532;28;20047;-61
2022/06/03 07:57:21;;;;;;;9.15;4.20;;;22.20;55.30;;;;;;5042319;28;20387;-61
2022/06/03 07:59:47;;;;;;;11.18;4.35;;;22.20;55.20;;;;;;5042587;28;20099;-61
2022/06/03 08:02:21;;;;;;;13.27;4.60;;;22.20;55.20;;;;;;5041709;28;20032;-61
2022/06/03 08:04:48;;;;;;;8.73;4.15;;;22.20;55.30;;;;;;5033385;28;20497;-61
2022/06/03 08:13:00;;;;;;;9.13;4.22;;;22.10;56.40;;;;;;5036045;28;20517;-61
2022/06/03 08:15:36;;;;;;;9.82;4.57;;;22.20;55.30;;;;;;5041288;28;20105;-61
2022/06/03 08:18:06;;;;;;;8.75;4.07;;;22.20;55.30;;;;;;5069035;28;20029;-61
2022/06/03 08:20:34;;;;;;;10.20;4.50;;;22.20;55.20;;;;;;5068471;28;20028;-62
2022/06/03 08:23:02;;;;;;;10.48;5.00;;;22.20;55.00;;;;;;5069254;28;20027;-62
2022/06/03 08:25:28;;;;;;;10.77;4.88;;;22.30;55.30;;;;;;5057149;28;20032;-61
2022/06/03 08:27:56;;;;;;;12.32;4.70;;;22.30;56.70;;;;;;5071545;28;20070;-62
2022/06/03 08:30:26;;;;;;;9.75;4.90;;;22.30;55.60;;;;;;5077960;28;20465;-62
2022/06/03 08:32:55;;;;;;;11.57;4.78;;;22.40;55.60;;;;;;5078481;28;20405;-61
2022/06/03 08:35:23;;;;;;;11.18;4.90;;;22.40;55.80;;;;;;5074410;28;20016;-62
2022/06/03 08:38:06;;;;;;;12.73;5.00;;;22.40;55.80;;;;;;5070121;28;20378;-61
2022/06/03 08:40:41;;;;;;;11.80;5.13;;;22.40;55.70;;;;;;5056750;28;20033;-61
2022/06/03 08:43:42;;;;;;;11.30;5.18;;;22.40;55.50;;;;;;5055380;28;20100;-62
2022/06/03 08:46:08;;;;;;;13.90;5.47;;;22.40;55.70;;;;;;5044932;28;20128;-61
2022/06/03 08:48:37;;;;;;;13.38;5.43;;;22.40;55.50;;;;;;5045733;28;20589;-61
2022/06/03 08:51:06;;;;;;;14.88;5.57;;;22.50;55.70;;;;;;5044890;28;20048;-62
2022/06/03 08:53:45;;;;;;;15.32;5.18;;;22.50;55.70;;;;;;5045335;28;20029;-62
2022/06/03 08:56:14;;;;;;;16.23;5.28;;;22.50;55.60;;;;;;5045857;28;20029;-62
2022/06/03 08:58:52;;;;;;;12.95;5.15;;;22.50;55.50;;;;;;5045588;28;20427;-62
2022/06/03 09:01:41;;;;;;;13.70;5.10;;;22.50;55.50;;;;;;5045800;28;20056;-62
2022/06/03 09:04:10;;;;;;;14.73;5.65;;;22.50;55.50;;;;;;5012681;28;20545;-62
2022/06/03 09:07:00;;;;;;;13.10;5.53;;;22.60;55.40;;;;;;5044083;28;20044;-61
2022/06/03 09:09:45;;;;;;;13.80;5.38;;;22.60;55.40;;;;;;5043949;28;20132;-62
2022/06/03 09:12:34;;;;;;;12.80;5.40;;;22.60;55.40;;;;;;5045372;28;20165;-61
2022/06/03 09:15:10;;;;;;;15.20;5.35;;;22.60;55.30;;;;;;4965072;28;20031;-62
2022/06/03 09:17:48;;;;;;;14.63;5.40;;;22.60;55.30;;;;;;4951084;28;20138;-62
2022/06/03 09:20:30;;;;;;;14.07;6.10;;;22.70;55.30;;;;;;4965136;28;20455;-61
2022/06/03 09:23:05;;;;;;;14.48;5.32;;;22.60;55.30;;;;;;4950519;28;20606;-62
2022/06/03 09:25:33;;;;;;;13.35;5.65;;;22.70;55.30;;;;;;4948405;28;20042;-61
2022/06/03 09:28:00;;;;;;;14.13;5.82;;;22.70;55.30;;;;;;4977860;28;20065;-62
2022/06/03 09:30:38;;;;;;;12.75;5.60;;;22.70;55.30;;;;;;4959391;28;20058;-62
2022/06/03 09:33:05;;;;;;;14.38;6.10;;;22.70;55.10;;;;;;4949883;28;20050;-62
2022/06/03 09:35:31;;;;;;;17.10;5.78;;;22.70;55.10;;;;;;4960235;28;20416;-62
2022/06/03 09:37:58;;;;;;;15.00;5.68;;;22.80;55.30;;;;;;4984301;28;20208;-62
2022/06/03 09:40:31;;;;;;;15.13;5.63;;;22.80;55.10;;;;;;4978811;28;20050;-62
2022/06/03 09:43:24;;;;;;;15.55;5.78;;;22.80;55.10;;;;;;4959437;28;20031;-61
2022/06/03 09:45:50;;;;;;;15.02;6.40;;;22.80;55.10;;;;;;4979826;28;20042;-62
2022/06/03 09:48:17;;;;;;;14.15;5.57;;;22.80;55.00;;;;;;4961696;28;20058;-61
2022/06/03 09:50:49;;;;;;;14.25;5.72;;;22.90;55.10;;;;;;4973785;28;20045;-62
2022/06/03 09:53:18;;;;;;;18.02;6.47;;;22.90;55.00;;;;;;5065509;28;20036;-62
2022/06/03 09:55:50;;;;;;;16.70;6.57;;;22.90;55.10;;;;;;5048639;28;20044;-62
2022/06/03 09:58:17;;;;;;;13.07;5.60;;;22.90;55.10;;;;;;5062498;28;20027;-62
2022/06/03 10:00:47;;;;;;;16.45;6.00;;;22.90;55.10;;;;;;5048803;28;20024;-62
2022/06/03 10:03:14;;;;;;;15.35;6.53;;;22.90;55.10;;;;;;5063017;28;20499;-62
2022/06/03 10:05:40;;;;;;;17.23;6.70;;;22.90;55.10;;;;;;5046413;28;20165;-62
2022/06/03 10:08:08;;;;;;;15.98;6.80;;;23.00;55.00;;;;;;5080364;28;20137;-62
2022/06/03 10:13:18;;;;;;;20.33;6.38;;;23.00;55.10;;;;;;5064977;28;20055;-62
2022/06/03 10:15:45;;;;;;;16.55;6.25;;;23.00;55.10;;;;;;5062910;28;20029;-62
2022/06/03 10:18:33;;;;;;;16.45;6.22;;;23.00;55.20;;;;;;5065727;28;20134;-62
2022/06/03 10:21:19;;;;;;;15.50;6.50;;;23.00;55.20;;;;;;5057021;28;20032;-62
2022/06/03 10:23:54;;;;;;;14.00;6.13;;;23.00;55.10;;;;;;5062074;28;20028;-62
2022/06/03 10:26:37;;;;;;;17.30;6.47;;;23.00;55.00;;;;;;5064834;28;20021;-62
2022/06/03 10:29:08;;;;;;;16.83;6.25;;;23.00;55.00;;;;;;5064422;28;20040;-62
2022/06/03 10:31:34;;;;;;;15.45;6.45;;;23.10;55.10;;;;;;5064466;28;20020;-62
2022/06/03 10:34:10;;;;;;;16.55;6.70;;;23.10;55.10;;;;;;5065823;28;20028;-62
2022/06/03 10:36:42;;;;;;;17.80;6.45;;;23.10;55.00;;;;;;5062602;28;20032;-62
2022/06/03 10:39:09;;;;;;;15.40;6.55;;;23.10;55.00;;;;;;5065126;28;20111;-62
2022/06/03 10:41:53;;;;;;;15.35;6.43;;;23.10;55.00;;;;;;5063915;28;20067;-62
2022/06/03 10:44:21;;;;;;;17.20;7.22;;;23.20;55.20;;;;;;5065084;28;20044;-61
2022/06/03 10:46:59;;;;;;;18.88;6.55;;;23.10;55.00;;;;;;5063810;28;20055;-62
2022/06/03 10:49:27;;;;;;;19.80;6.82;;;23.10;55.20;;;;;;5062563;28;20048;-62
2022/06/03 11:02:52;;;;;;;15.27;6.55;;;23.20;55.20;;;;;;5064270;28;20078;-62
2022/06/03 11:05:25;;;;;;;14.02;6.28;;;23.20;55.30;;;;;;5063657;28;20028;-62
2022/06/03 11:08:03;;;;;;;14.50;6.53;;;23.10;55.20;;;;;;5061148;28;20124;-62
2022/06/03 11:10:50;;;;;;;16.92;6.10;;;23.20;55.50;;;;;;5065373;28;20024;-62
2022/06/03 11:13:28;;;;;;;15.07;5.95;;;23.10;55.60;;;;;;5064240;28;20049;-62
2022/06/03 11:15:54;;;;;;;13.95;5.93;;;23.10;55.70;;;;;;5064666;28;20056;-62
2022/06/03 11:18:26;;;;;;;18.23;6.45;;;23.10;55.90;;;;;;5063359;28;20528;-62
2022/06/03 11:20:53;;;;;;;18.70;6.55;;;23.20;56.00;;;;;;5062800;28;20544;-62
2022/06/03 11:23:18;;;;;;;16.83;7.00;;;23.20;55.90;;;;;;5064501;28;20548;-62
2022/06/03 11:25:46;;;;;;;19.88;7.50;;;23.20;55.90;;;;;;5063118;28;20112;-62
2022/06/03 11:28:13;;;;;;;14.43;6.53;;;23.20;55.90;;;;;;5063677;28;20056;-62
2022/06/03 11:30:51;;;;;;;18.58;6.88;;;23.30;56.00;;;;;;5064134;28;21085;-62
2022/06/03 11:33:19;;;;;;;18.05;6.95;;;23.30;55.70;;;;;;5066563;28;20043;-62
2022/06/03 11:35:51;;;;;;;16.08;6.68;;;23.30;55.70;;;;;;5066865;28;20028;-62
2022/06/03 11:38:35;;;;;;;15.52;6.38;;;23.30;55.60;;;;;;5066643;28;20053;-62
2022/06/03 11:41:03;;;;;;;19.42;6.82;;;23.30;55.80;;;;;;5066024;28;20055;-62
2022/06/03 11:43:38;;;;;;;16.85;6.65;;;23.30;55.60;;;;;;5066775;28;20535;-62
2022/06/03 11:46:06;;;;;;;15.20;6.13;;;23.40;55.60;;;;;;5068421;28;20020;-61
2022/06/03 11:48:35;;;;;;;16.65;6.25;;;23.40;55.40;;;;;;5067587;28;20040;-62
2022/06/03 11:51:01;;;;;;;25.88;8.15;;;23.40;55.50;;;;;;5064473;28;20033;-62
2022/06/03 11:53:29;;;;;;;28.85;8.27;;;23.20;55.30;;;;;;5066735;28;20036;-62
2022/06/03 11:56:00;;;;;;;34.58;10.52;;;23.20;55.60;;;;;;5066918;28;20024;-62
2022/06/03 11:59:02;;;;;;;36.25;9.57;;;23.10;55.70;;;;;;5066655;28;20028;-62
2022/06/03 12:01:34;;;;;;;34.85;9.23;;;23.00;55.60;;;;;;5065478;28;20055;-62
2022/06/03 12:04:17;;;;;;;27.40;8.93;;;23.00;55.70;;;;;;5079511;28;20021;-62
2022/06/03 12:06:56;;;;;;;26.30;8.52;;;23.00;55.90;;;;;;5065410;28;20485;-62
2022/06/03 12:09:31;;;;;;;27.73;8.80;;;23.00;55.90;;;;;;5063688;28;20143;-62
2022/06/03 12:14:45;;;;;;;25.25;8.73;;;23.10;55.70;;;;;;5063279;28;20039;-62
2022/06/03 12:17:11;;;;;;;24.13;7.93;;;23.20;55.40;;;;;;5067351;28;20059;-62
2022/06/03 12:19:45;;;;;;;27.98;8.57;;;23.20;55.30;;;;;;5066581;28;20078;-62
2022/06/03 12:22:29;;;;;;;28.85;8.45;;;23.20;55.20;;;;;;5067187;28;20481;-62
2022/06/03 12:24:58;;;;;;;23.80;7.43;;;23.30;55.30;;;;;;5065886;28;20115;-61
2022/06/03 12:27:32;;;;;;;26.20;7.68;;;23.30;55.20;;;;;;5067558;28;20033;-62
2022/06/03 12:30:03;;;;;;;28.10;8.13;;;23.30;55.10;;;;;;5065688;28;20024;-62
2022/06/03 12:32:29;;;;;;;27.90;7.85;;;23.40;55.10;;;;;;5067948;28;20331;-62
2022/06/03 12:35:32;;;;;;;24.83;7.45;;;23.40;55.10;;;;;;5065939;28;20500;-62
2022/06/03 12:38:20;;;;;;;23.95;7.10;;;23.50;55.00;;;;;;5065489;28;20075;-62
2022/06/03 12:40:46;;;;;;;24.85;7.60;;;23.40;54.90;;;;;;5062316;28;20021;-63
2022/06/03 12:43:30;;;;;;;25.20;7.22;;;23.50;54.90;;;;;;5066562;28;20032;-62
2022/06/03 12:46:04;;;;;;;24.77;8.02;;;23.50;54.90;;;;;;5061485;28;21128;-62
2022/06/03 12:48:48;;;;;;;23.90;7.47;;;23.50;54.80;;;;;;5064807;28;20048;-62
2022/06/03 12:51:28;;;;;;;21.30;7.07;;;23.50;54.80;;;;;;5063697;28;20826;-62
2022/06/03 12:54:04;;;;;;;20.15;7.10;;;23.50;54.80;;;;;;5065160;28;20035;-62
2022/06/03 12:56:46;;;;;;;22.65;6.97;;;23.60;54.70;;;;;;5063522;28;20021;-62
2022/06/03 12:59:22;;;;;;;25.38;6.97;;;23.60;54.70;;;;;;5062977;28;20038;-62
2022/06/03 13:02:00;;;;;;;25.60;7.20;;;23.60;54.70;;;;;;5065878;28;20024;-62
2022/06/03 13:04:45;;;;;;;25.55;7.05;;;23.60;54.50;;;;;;5064922;28;20461;-62
2022/06/03 13:07:15;;;;;;;27.38;7.30;;;23.70;54.50;;;;;;5067293;28;20028;-62
2022/06/03 13:09:55;;;;;;;21.13;6.57;;;23.70;54.50;;;;;;5064273;28;20086;-62
2022/06/03 13:12:34;;;;;;;26.73;7.00;;;23.70;54.50;;;;;;5065746;28;20085;-62
2022/06/03 13:15:22;;;;;;;23.17;6.68;;;23.70;54.60;;;;;;5062688;28;20028;-62
2022/06/03 13:17:53;;;;;;;28.65;7.28;;;23.70;54.60;;;;;;5064222;28;20027;-62
2022/06/03 13:20:39;;;;;;;26.63;6.43;;;23.60;54.40;;;;;;5064493;28;20025;-62
2022/06/03 13:23:32;;;;;;;22.60;6.90;;;23.60;54.80;;;;;;5065278;28;20024;-62
2022/06/03 13:26:27;;;;;;;23.77;7.22;;;23.70;54.80;;;;;;5064784;28;20029;-62
2022/06/03 13:29:00;;;;;;;;;;;23.70;54.70;;;;;;5062861;28;20048;-62
2022/06/03 13:31:40;;;;;;;28.30;7.10;;;23.70;54.60;;;;;;5065017;28;19909;-62
2022/06/03 13:34:12;;;;;;;29.85;7.22;;;23.70;54.60;;;;;;5065880;28;20051;-62
2022/06/03 13:36:49;;;;;;;23.77;6.90;;;23.70;54.50;;;;;;5064620;28;20021;-62
2022/06/03 13:39:24;;;;;;;26.52;6.60;;;23.70;54.50;;;;;;5065501;28;20033;-62
2022/06/03 13:44:52;;;;;;;24.88;6.53;;;23.70;54.60;;;;;;5063051;28;20031;-62
2022/06/03 13:47:28;;;;;;;24.65;7.28;;;23.70;54.40;;;;;;5077590;28;20048;-62
2022/06/03 13:50:03;;;;;;;31.75;6.80;;;23.80;54.40;;;;;;5063016;28;20472;-63
2022/06/03 13:52:32;;;;;;;33.47;6.60;;;23.80;54.60;;;;;;5063289;28;20047;-63
2022/06/03 13:55:23;;;;;;;29.27;7.18;;;23.80;54.50;;;;;;5064282;28;20066;-63
2022/06/03 13:57:52;;;;;;;22.50;6.15;;;23.80;54.40;;;;;;5064630;28;20021;-63
2022/06/03 14:00:26;;;;;;;24.23;6.13;;;23.90;54.30;;;;;;5063498;28;20024;-63
2022/06/03 14:02:54;;;;;;;20.60;5.65;;;23.80;54.20;;;;;;5064384;28;20029;-63
2022/06/03 14:05:29;;;;;;;21.50;6.00;;;23.80;54.10;;;;;;5047804;28;20623;-63
2022/06/03 14:08:15;;;;;;;23.23;6.47;;;23.80;54.70;;;;;;5065154;28;20024;-63
2022/06/03 14:10:58;;;;;;;25.23;6.22;;;23.80;54.50;;;;;;5058951;28;20044;-63
2022/06/03 14:13:48;;;;;;;23.35;6.45;;;23.80;54.50;;;;;;5062065;28;20032;-64
2022/06/03 14:16:20;;;;;;;25.85;6.38;;;23.80;54.50;;;;;;5064299;28;20484;-64